Skip Navigation Links Skip Navigation Links

Current Weather

Shannon, Fredericksburg, Va.

For information only: do not use for flight planning or navigation.
Latest weather
Observation time Sunday, August 1, 2021 5:35 AM EDT
Local time Sunday, August 1, 2021 7:27 AM EDT
Flight conditions Visual Meteorological Conditions
Winds
Wind direction South-Southwest (200°)
Wind speed 5 mph
Visibility 10 mi.
Sky condition
Ceiling 9,000 ft. overcast
Cloud layer scattered clouds 7,000 ft.
Cloud layer overcast 9,000 ft.
Temperature 71°F
Dewpoint 70°F
Altimeter 29.89 in.Hg
Derived measurements
Relative humidity 98%
Density altitude 1219 ft.
Remarks
Fully automated report.
Automated weather observing station with precipitation discriminator.
METAR KEZF 010935Z AUTO 20004KT 10SM SCT070 OVC090 22/21 A2989 RMK AO2 T02150212

Settings

Location code

InnerDrive.Weather 4.0.6770.0 Release CLR 4.0.30319.42000
Copyright ©2018 Inner Drive Technology. All rights reserved. Portions Copyright ©1986-2018 David Braverman.

Find weather

Site navigation


Skip Navigation Links

Place info

Page info

PayPal - The safer, easier way to pay online!

Return home.

Copyright ©2021 Inner Drive Technology. Purveyors of fine, hand-crafted computer software. Page printed 2021-08-01T11:27:35 UTC.